Time;durP1;ratioP1;P1;durP2;ratioP2;P2;SDS_P1;SDS_P2;PMS_P1;PMS_P2;Temp;Humidity;BMP_temperature;BMP_pressure;BME280_temperature;BME280_humidity;BME280_pressure;Samples;Min_cycle;Max_cycle;Signal;HPM_P1;HPM_P2
2022/01/04 00:00:11;;;;;;;1.65;0.65;;;9.80;99.90;;;9.35;100.00;96295.94;4997835;28;20033;-47
2022/01/04 00:02:36;;;;;;;1.42;0.50;;;9.80;99.90;;;9.34;100.00;96292.41;5001675;28;20033;-47
2022/01/04 00:05:04;;;;;;;3.03;0.90;;;9.80;99.90;;;9.32;100.00;96285.53;4996276;28;20045;-43
2022/01/04 00:07:31;;;;;;;2.00;0.70;;;9.80;99.90;;;9.28;100.00;96282.22;4994202;28;20038;-45
2022/01/04 00:09:56;;;;;;;1.85;0.70;;;9.70;99.90;;;9.31;100.00;96276.81;4993150;28;20519;-46
2022/01/04 00:15:08;;;;;;;1.30;0.70;;;9.80;99.90;;;9.28;100.00;96274.31;4999388;28;20052;-45
2022/01/04 00:17:34;;;;;;;3.17;0.70;;;9.70;99.90;;;9.26;100.00;96268.28;5001796;28;20022;-48
2022/01/04 00:20:00;;;;;;;0.80;0.60;;;9.70;99.90;;;9.31;100.00;96263.66;4999133;28;20335;-47
2022/01/04 00:22:25;;;;;;;0.80;0.57;;;9.70;99.90;;;9.33;100.00;96259.16;4996107;28;20432;-46
2022/01/04 00:24:51;;;;;;;1.30;0.80;;;9.70;99.90;;;9.31;100.00;96255.75;4996046;28;20038;-46
2022/01/04 00:27:17;;;;;;;3.15;0.85;;;9.70;99.90;;;9.31;100.00;96236.47;4995824;28;20061;-46
2022/01/04 00:29:43;;;;;;;3.65;0.70;;;9.70;99.90;;;9.29;100.00;96240.97;4999660;28;20724;-48
2022/01/04 00:32:09;;;;;;;1.08;0.70;;;9.80;99.90;;;9.26;100.00;96251.63;4990906;28;20022;-46
2022/01/04 00:34:34;;;;;;;1.13;0.70;;;9.70;99.90;;;9.25;100.00;96240.28;4998818;28;20469;-47
2022/01/04 00:37:00;;;;;;;1.58;0.80;;;9.70;99.90;;;9.25;100.00;96240.28;4996942;28;20116;-46
2022/01/04 00:39:26;;;;;;;3.10;0.60;;;9.70;99.90;;;9.26;100.00;96228.84;4996749;28;20035;-45
2022/01/04 00:41:52;;;;;;;3.33;0.90;;;9.60;99.90;;;9.25;100.00;96216.59;5006326;28;20044;-43
2022/01/04 00:44:18;;;;;;;1.35;0.80;;;9.70;99.90;;;9.19;100.00;96219.53;5001312;28;20050;-47
2022/01/04 00:46:43;;;;;;;1.17;0.70;;;9.70;99.90;;;9.24;100.00;96216.66;4990132;28;20152;-45
2022/01/04 00:49:10;;;;;;;0.93;0.55;;;9.70;99.90;;;9.22;100.00;96208.84;5001328;28;20030;-45
2022/01/04 00:51:46;;;;;;;1.30;0.70;;;9.60;99.90;;;9.23;100.00;96204.47;4995836;28;20036;-42
2022/01/04 00:54:13;;;;;;;1.75;0.93;;;9.70;99.90;;;9.21;100.00;96201.91;4989283;28;20045;-48
2022/01/04 00:56:40;;;;;;;2.10;1.00;;;9.70;99.90;;;9.18;100.00;96184.47;4994335;28;20026;-46
2022/01/04 00:59:06;;;;;;;1.95;0.77;;;9.60;99.90;;;9.11;100.00;96183.09;4994647;28;20519;-45
2022/01/04 01:01:33;;;;;;;1.40;0.60;;;9.60;99.90;;;9.14;100.00;96192.63;4991934;28;20111;-45
2022/01/04 01:03:58;;;;;;;1.85;0.70;;;9.50;99.90;;;9.12;100.00;96182.16;4996845;28;20495;-44
2022/01/04 01:06:24;;;;;;;4.70;0.70;;;9.60;99.90;;;9.08;100.00;96182.38;4991749;28;20030;-45
2022/01/04 01:08:50;;;;;;;3.53;0.90;;;9.60;99.90;;;8.97;100.00;96154.88;4996426;28;20080;-44
2022/01/04 01:11:16;;;;;;;1.65;0.60;;;9.50;99.90;;;9.04;100.00;96167.69;4992434;28;20038;-46
2022/01/04 01:13:42;;;;;;;1.25;0.65;;;9.50;99.90;;;8.96;100.00;96153.16;4991947;28;20033;-44
2022/01/04 01:16:09;;;;;;;2.30;0.80;;;9.50;99.90;;;9.01;100.00;96150.31;4990236;28;20412;-45
2022/01/04 01:18:35;;;;;;;0.82;0.73;;;9.50;99.90;;;9.00;100.00;96145.13;4993812;28;20135;-43
2022/01/04 01:21:03;;;;;;;1.63;0.73;;;9.50;99.90;;;9.09;100.00;96144.66;4993337;28;20432;-44
2022/01/04 01:23:29;;;;;;;1.00;0.70;;;9.50;99.90;;;9.05;100.00;96138.69;4997511;28;20099;-45
2022/01/04 01:25:56;;;;;;;0.93;0.60;;;9.50;99.90;;;9.08;100.00;96140.31;4994466;28;20566;-45
2022/01/04 01:28:23;;;;;;;0.95;0.75;;;9.50;99.90;;;8.97;100.00;96128.59;5006835;28;20399;-46
2022/01/04 01:30:48;;;;;;;1.25;0.73;;;9.50;99.90;;;8.97;100.00;96128.59;5001823;28;20049;-46
2022/01/04 01:33:15;;;;;;;0.95;0.50;;;9.50;99.90;;;9.01;100.00;96121.38;4998382;28;20046;-45
2022/01/04 01:35:41;;;;;;;2.10;0.90;;;9.50;99.90;;;9.00;100.00;96121.47;4990614;28;20053;-45
2022/01/04 01:38:13;;;;;;;2.10;0.60;;;9.50;99.90;;;9.01;100.00;96110.00;4996307;28;20069;-46
2022/01/04 01:40:40;;;;;;;1.15;0.60;;;9.50;99.90;;;8.94;100.00;96098.97;5000168;28;20030;-44
2022/01/04 01:43:07;;;;;;;1.38;0.73;;;9.40;99.90;;;8.95;100.00;96101.53;4995173;28;20038;-44
2022/01/04 01:45:34;;;;;;;4.82;0.85;;;9.40;99.90;;;8.97;100.00;96096.16;4993112;28;20030;-47
2022/01/04 01:48:00;;;;;;;1.98;0.82;;;9.40;99.90;;;9.02;100.00;96074.91;4998583;28;20530;-45
2022/01/04 01:50:26;;;;;;;3.15;0.70;;;9.50;99.90;;;8.89;100.00;96067.63;4996054;28;20587;-46
2022/01/04 01:52:55;;;;;;;1.38;0.77;;;9.40;99.90;;;8.90;100.00;96061.47;4997129;28;20066;-45
2022/01/04 01:55:23;;;;;;;1.27;0.90;;;9.40;99.90;;;8.85;100.00;96057.38;4996357;28;20037;-45
2022/01/04 01:57:50;;;;;;;2.35;0.82;;;9.30;99.90;;;8.76;100.00;96042.94;4998979;28;20092;-48
2022/01/04 02:00:20;;;;;;;1.42;0.60;;;9.30;99.90;;;8.72;100.00;96047.50;5000497;28;20031;-46
2022/01/04 02:02:46;;;;;;;5.28;0.70;;;9.20;99.90;;;8.13;100.00;95962.88;5018111;23;20021;-89
2022/01/04 02:05:24;;;;;;;1.20;0.73;;;9.10;99.90;;;8.47;100.00;96037.38;5067043;28;20017;-87
2022/01/04 02:07:51;;;;;;;1.88;0.90;;;9.10;99.90;;;8.52;100.00;96030.09;5025537;28;20014;-88
2022/01/04 02:10:16;;;;;;;1.58;0.80;;;9.00;99.90;;;8.53;100.00;96041.47;5030455;28;20005;-90
2022/01/04 02:12:46;;;;;;;2.25;1.02;;;9.00;99.90;;;8.29;100.00;95988.34;5035172;28;20025;-88
2022/01/04 02:15:16;;;;;;;1.13;0.75;;;9.00;99.90;;;7.84;100.00;95910.03;5021887;28;20012;-86
2022/01/04 02:17:42;;;;;;;2.83;0.75;;;9.00;99.90;;;7.95;100.00;95919.13;5035167;28;20217;-90
2022/01/04 02:20:09;;;;;;;2.17;1.02;;;9.00;99.90;;;7.92;100.00;95909.66;5055601;28;20051;-89
2022/01/04 02:22:35;;;;;;;1.30;0.80;;;9.00;99.90;;;8.14;100.00;95943.53;5048154;28;20025;-89
2022/01/04 02:25:01;;;;;;;2.20;1.00;;;9.00;99.90;;;8.16;100.00;95949.56;5034249;28;20021;-88
2022/01/04 02:27:27;;;;;;;1.75;0.93;;;9.00;99.90;;;8.07;100.00;95910.63;5055625;28;20009;-87
2022/01/04 02:29:53;;;;;;;1.92;1.10;;;9.10;99.90;;;8.25;100.00;95923.78;5033903;28;20016;-87
2022/01/04 02:32:19;;;;;;;1.27;0.95;;;9.10;99.90;;;8.12;100.00;95878.91;5054610;28;20020;-89
2022/01/04 02:34:51;;;;;;;1.63;1.05;;;9.10;99.90;;;8.09;100.00;95869.41;5036438;28;20044;-90
2022/01/04 02:37:27;;;;;;;1.60;1.00;;;9.10;99.90;;;8.00;100.00;95849.75;5036750;28;20010;-91
2022/01/04 02:39:59;;;;;;;3.17;1.08;;;9.20;99.90;;;8.06;100.00;95848.56;5038622;28;20027;-91
2022/01/04 02:42:25;;;;;;;2.08;1.10;;;9.20;99.90;;;8.06;100.00;95840.69;5033686;28;20013;-89
2022/01/04 02:44:54;;;;;;;3.90;1.25;;;9.20;99.90;;;8.12;100.00;95832.50;5068763;28;20030;-90
2022/01/04 02:47:20;;;;;;;2.40;1.15;;;9.20;99.90;;;8.46;100.00;95872.78;5020587;28;20045;-92
2022/01/04 02:49:46;;;;;;;1.70;1.20;;;9.30;99.90;;;8.56;100.00;95874.00;5051834;28;20024;-89
2022/01/04 02:52:15;;;;;;;1.50;1.08;;;9.30;99.90;;;8.94;100.00;95921.03;5021754;28;20017;-86
2022/01/04 02:54:40;;;;;;;2.33;1.30;;;9.30;99.90;;;8.96;100.00;95910.44;5018399;28;20113;-87
2022/01/04 02:57:07;;;;;;;3.35;1.10;;;9.40;99.90;;;8.45;100.00;95813.28;5049568;28;20033;-86
2022/01/04 02:59:43;;;;;;;2.28;1.23;;;9.50;99.90;;;8.84;100.00;95853.25;5051770;28;20026;-89
2022/01/04 03:02:09;;;;;;;1.58;1.08;;;9.50;99.90;;;8.43;100.00;95782.78;5030580;28;21083;-87
2022/01/04 03:04:35;;;;;;;4.55;1.33;;;9.50;99.90;;;9.01;100.00;95861.06;5051610;28;20060;-88
2022/01/04 03:07:02;;;;;;;0.98;0.88;;;9.60;99.90;;;8.69;100.00;95802.38;5040197;28;20056;-88
2022/01/04 03:09:38;;;;;;;;;;;;;;;;;;;;;
2022/01/04 03:12:06;;;;;;;3.90;1.63;;;9.70;99.90;;;9.23;100.00;95881.75;5016187;23;20148;-47
2022/01/04 03:14:31;;;;;;;1.83;1.10;;;9.70;99.90;;;9.27;100.00;95880.63;4978698;28;20034;-44
2022/01/04 03:16:57;;;;;;;2.20;1.00;;;9.70;99.90;;;9.29;100.00;95872.66;4984103;28;20030;-44
2022/01/04 03:19:23;;;;;;;1.40;1.30;;;9.80;99.90;;;9.31;100.00;95871.66;4984413;28;20038;-40
2022/01/04 03:21:48;;;;;;;1.92;1.00;;;9.80;99.90;;;9.36;100.00;95868.75;4982318;28;20038;-41
2022/01/04 03:24:15;;;;;;;2.22;0.90;;;9.80;99.90;;;9.39;100.00;95865.97;4981800;28;20038;-42
2022/01/04 03:26:42;;;;;;;2.15;1.00;;;9.80;99.90;;;9.42;100.00;95860.53;4983172;28;20544;-47
2022/01/04 03:29:10;;;;;;;1.90;0.93;;;9.90;99.90;;;9.14;100.00;95816.53;4980303;28;20034;-47
2022/01/04 03:31:36;;;;;;;1.38;0.85;;;9.90;99.90;;;9.39;100.00;95844.91;4985675;28;20026;-45
2022/01/04 03:34:03;;;;;;;2.10;1.10;;;9.90;99.90;;;9.45;100.00;95848.97;4980936;28;20325;-44
2022/01/04 03:36:29;;;;;;;2.58;1.30;;;9.90;99.90;;;9.43;100.00;95858.75;4981759;28;20326;-42
2022/01/04 03:38:56;;;;;;;4.22;1.08;;;9.90;99.90;;;9.45;100.00;95848.97;4984913;28;20061;-39
2022/01/04 03:41:26;;;;;;;1.92;1.20;;;9.80;99.90;;;9.43;100.00;95835.06;4982179;28;20084;-43
2022/01/04 03:43:52;;;;;;;1.80;1.15;;;9.90;99.90;;;9.45;100.00;95820.88;4982772;28;20480;-38
2022/01/04 03:46:19;;;;;;;0.80;0.80;;;9.90;99.90;;;9.49;100.00;95821.53;4978793;28;20038;-47
2022/01/04 03:48:45;;;;;;;1.98;0.80;;;9.90;99.90;;;9.44;100.00;95813.94;4980092;28;20026;-46
2022/01/04 03:51:11;;;;;;;2.78;1.10;;;9.90;99.90;;;9.44;100.00;95802.53;4985313;28;20464;-42
2022/01/04 03:53:37;;;;;;;1.30;0.70;;;9.90;99.90;;;9.44;100.00;95784.13;4980316;28;20887;-45
2022/01/04 03:56:04;;;;;;;1.77;0.90;;;9.90;99.90;;;9.41;100.00;95782.53;4980566;28;20036;-41
2022/01/04 03:58:30;;;;;;;1.60;0.88;;;9.90;99.90;;;9.41;100.00;95781.69;4985481;28;20038;-44
2022/01/04 04:00:56;;;;;;;1.20;0.85;;;9.90;99.90;;;9.39;100.00;95773.88;4981015;28;20096;-44
2022/01/04 04:03:22;;;;;;;1.90;1.08;;;9.90;99.90;;;9.50;100.00;95783.78;4982295;28;20038;-41
2022/01/04 04:05:49;;;;;;;1.30;0.70;;;9.90;99.90;;;9.49;100.00;95777.69;4979404;28;20061;-44
2022/01/04 04:08:16;;;;;;;1.98;0.85;;;9.90;99.90;;;9.57;100.00;95777.22;4980599;28;20325;-42
2022/01/04 04:10:41;;;;;;;1.48;0.80;;;10.00;99.90;;;9.58;100.00;95765.75;4980699;28;20479;-47
2022/01/04 04:13:07;;;;;;;2.22;0.90;;;10.00;99.90;;;9.53;100.00;95765.19;4982451;28;20034;-42
2022/01/04 04:15:33;;;;;;;1.42;0.90;;;10.00;99.90;;;9.54;100.00;95757.19;4982912;28;20026;-43
2022/01/04 04:17:59;;;;;;;1.80;0.93;;;10.00;99.90;;;9.53;100.00;95755.50;4984415;28;20116;-45
2022/01/04 04:20:25;;;;;;;1.33;0.80;;;10.00;99.90;;;9.55;100.00;95753.63;4981103;28;20117;-46
2022/01/04 04:22:51;;;;;;;1.70;0.70;;;10.00;99.90;;;9.63;100.00;95740.00;4982442;28;20085;-45
2022/01/04 04:25:17;;;;;;;1.05;0.60;;;10.00;99.90;;;9.61;100.00;95731.34;4982914;28;20117;-40
2022/01/04 04:27:43;;;;;;;1.60;0.73;;;10.00;99.90;;;9.60;100.00;95720.91;4984753;28;20440;-38
2022/01/04 04:30:10;;;;;;;2.28;0.90;;;10.00;99.90;;;9.59;100.00;95721.88;4980724;28;20030;-39
2022/01/04 04:32:36;;;;;;;3.30;0.80;;;10.00;99.90;;;9.57;100.00;95734.28;4984413;28;20468;-40
2022/01/04 04:35:04;;;;;;;0.70;0.70;;;10.00;99.90;;;9.53;100.00;95729.19;4981604;28;20049;-43
2022/01/04 04:37:30;;;;;;;1.73;0.80;;;10.00;99.90;;;9.47;100.00;95729.53;4980410;28;20057;-43
2022/01/04 04:39:55;;;;;;;1.52;0.70;;;10.00;99.90;;;9.49;100.00;95704.00;4983403;28;20114;-44
2022/01/04 04:42:22;;;;;;;1.65;0.85;;;10.00;99.90;;;9.48;100.00;95704.09;4981985;28;20034;-37
2022/01/04 04:44:47;;;;;;;1.42;0.70;;;9.90;99.90;;;9.44;100.00;95708.69;4974619;28;20034;-45
2022/01/04 04:47:13;;;;;;;1.23;0.70;;;9.90;99.90;;;9.42;100.00;95707.94;4981664;28;20034;-43
2022/01/04 04:49:39;;;;;;;2.13;0.93;;;9.90;99.90;;;9.32;100.00;95689.19;4980677;28;20038;-39
2022/01/04 04:52:05;;;;;;;1.45;0.70;;;9.90;99.90;;;9.43;100.00;95690.34;4979302;28;20034;-40
2022/01/04 04:54:31;;;;;;;1.00;0.90;;;9.90;99.90;;;9.46;100.00;95691.03;4983574;28;20756;-38
2022/01/04 04:56:57;;;;;;;0.80;0.60;;;9.80;99.90;;;9.40;100.00;95685.28;4984112;28;20113;-49
2022/01/04 04:59:23;;;;;;;2.53;0.90;;;9.90;99.90;;;9.38;100.00;95682.72;4985224;28;20054;-45
2022/01/04 05:01:49;;;;;;;1.52;0.80;;;9.80;99.90;;;9.36;100.00;95676.72;4976024;28;20034;-47
2022/01/04 05:04:14;;;;;;;0.88;0.70;;;9.80;99.90;;;9.33;100.00;95675.13;4977778;28;20039;-43
2022/01/04 05:06:40;;;;;;;0.73;0.63;;;9.80;99.90;;;9.43;100.00;95659.63;4988238;28;20527;-45
2022/01/04 05:09:06;;;;;;;1.85;0.80;;;9.80;99.90;;;9.21;100.00;95635.56;4977364;28;20034;-40
2022/01/04 05:11:32;;;;;;;4.18;1.00;;;9.80;99.90;;;9.38;100.00;95666.94;4980410;28;20049;-45
2022/01/04 05:13:58;;;;;;;1.15;0.77;;;9.90;99.90;;;9.39;100.00;95663.38;4986394;28;20038;-46
2022/01/04 05:16:24;;;;;;;1.50;0.80;;;9.80;99.90;;;9.38;100.00;95652.94;4986870;28;20037;-45
2022/01/04 05:18:49;;;;;;;1.35;0.70;;;9.80;99.90;;;9.42;100.00;95657.94;4987722;28;20326;-41
2022/01/04 05:21:15;;;;;;;1.55;0.85;;;9.80;99.90;;;9.48;100.00;95656.72;4984340;28;20084;-46
2022/01/04 05:23:41;;;;;;;4.03;0.90;;;9.90;99.90;;;9.50;100.00;95658.31;4985372;28;20496;-46
2022/01/04 05:26:06;;;;;;;1.08;0.70;;;9.90;99.90;;;9.44;100.00;95648.19;4985222;28;20030;-41
2022/01/04 05:28:32;;;;;;;2.53;0.95;;;9.90;99.90;;;9.41;100.00;95639.63;4984459;28;20034;-41
2022/01/04 05:30:58;;;;;;;2.50;1.00;;;9.90;99.90;;;9.38;100.00;95645.91;4982384;28;20038;-44
2022/01/04 05:33:24;;;;;;;1.67;0.77;;;9.80;99.90;;;9.40;100.00;95637.91;4987246;28;20109;-42
2022/01/04 05:35:49;;;;;;;3.88;0.77;;;9.80;99.90;;;9.35;100.00;95631.16;4987283;28;20535;-45
2022/01/04 05:38:15;;;;;;;1.15;0.68;;;9.80;99.90;;;9.46;100.00;95627.03;4985256;28;20332;-45
2022/01/04 05:40:42;;;;;;;1.00;0.70;;;9.80;99.90;;;9.38;100.00;95597.69;4984745;28;20504;-45
2022/01/04 05:43:08;;;;;;;2.63;0.98;;;9.80;99.90;;;9.43;100.00;95593.00;4984015;28;20049;-42
2022/01/04 05:45:34;;;;;;;2.03;0.95;;;9.90;99.90;;;9.44;100.00;95590.28;4986630;28;20026;-54
2022/01/04 05:48:00;;;;;;;2.13;0.70;;;9.80;99.90;;;9.33;100.00;95579.56;4983244;28;20167;-46
2022/01/04 05:50:26;;;;;;;2.35;0.98;;;9.90;99.90;;;9.17;100.00;95548.94;4984988;28;20077;-45
2022/01/04 05:52:51;;;;;;;4.05;0.90;;;9.80;99.90;;;9.35;100.00;95586.44;4984171;28;20034;-41
2022/01/04 05:55:17;;;;;;;1.38;0.85;;;9.80;99.90;;;9.36;100.00;95571.47;4982368;28;20033;-43
2022/01/04 05:57:43;;;;;;;1.52;0.70;;;9.80;99.90;;;9.38;100.00;95579.28;4988157;28;20031;-39
2022/01/04 06:00:10;;;;;;;2.47;0.60;;;9.80;99.90;;;9.36;100.00;95576.75;4984160;28;20030;-43
2022/01/04 06:02:36;;;;;;;1.42;0.82;;;9.80;99.90;;;9.41;100.00;95566.78;4979896;28;20038;-42
2022/01/04 06:05:03;;;;;;;0.77;0.68;;;9.80;99.90;;;9.41;100.00;95565.97;4982169;28;20058;-48
2022/01/04 06:07:29;;;;;;;1.40;0.80;;;9.80;99.90;;;9.39;100.00;95566.03;4983219;28;20444;-43
2022/01/04 06:09:55;;;;;;;1.50;0.82;;;9.80;99.90;;;9.41;100.00;95560.69;4982703;28;20085;-44
2022/01/04 06:15:03;;;;;;;1.30;0.73;;;9.80;99.90;;;9.39;100.00;95550.25;4984843;28;20026;-47
2022/01/04 06:17:30;;;;;;;;;;;9.80;99.90;;;9.38;100.00;95545.94;4981520;28;20448;-41
2022/01/04 06:19:58;;;;;;;1.35;0.80;;;9.80;99.90;;;9.30;100.00;95532.41;4983433;28;20360;-49
2022/01/04 06:22:25;;;;;;;2.80;0.95;;;9.80;99.90;;;9.36;100.00;95530.22;4983787;28;20419;-39
2022/01/04 06:24:52;;;;;;;1.20;0.73;;;9.80;99.90;;;9.28;100.00;95511.47;4985640;28;20036;-43
2022/01/04 06:27:18;;;;;;;2.75;0.80;;;9.80;99.90;;;9.36;100.00;95529.41;4983186;28;20387;-39
2022/01/04 06:29:43;;;;;;;1.48;0.80;;;9.80;99.90;;;9.36;100.00;95500.47;4984716;28;20030;-44
2022/01/04 06:32:11;;;;;;;1.92;0.90;;;9.80;99.90;;;9.36;100.00;95514.44;4986185;28;20058;-37
2022/01/04 06:34:39;;;;;;;1.90;0.80;;;9.80;99.90;;;9.36;100.00;95511.81;4986854;28;22205;-45
2022/01/04 06:37:06;;;;;;;4.45;1.80;;;9.80;99.90;;;9.39;100.00;95513.44;4983933;28;20030;-46
2022/01/04 06:39:32;;;;;;;2.65;1.00;;;9.80;99.90;;;9.39;100.00;95515.22;4983758;28;20030;-43
2022/01/04 06:41:58;;;;;;;1.52;0.90;;;9.90;99.90;;;9.40;100.00;95507.22;4983857;28;20092;-40
2022/01/04 06:44:24;;;;;;;1.63;0.90;;;9.80;99.90;;;9.47;100.00;95512.94;4984806;28;20034;-43
2022/01/04 06:46:51;;;;;;;1.92;1.02;;;9.90;99.90;;;9.29;100.00;95480.75;4984648;28;20038;-44
2022/01/04 06:49:20;;;;;;;2.20;0.95;;;9.90;99.90;;;9.47;100.00;95507.69;4981042;28;20414;-42
2022/01/04 06:51:47;;;;;;;1.70;0.82;;;9.90;99.90;;;9.48;100.00;95504.13;4986285;28;20053;-43
2022/01/04 06:54:16;;;;;;;2.65;0.88;;;9.90;99.90;;;9.47;100.00;95505.88;4982156;28;20034;-45
2022/01/04 06:56:42;;;;;;;2.75;0.80;;;9.90;99.90;;;9.52;100.00;95495.09;4984788;28;20314;-44
2022/01/04 06:59:09;;;;;;;4.15;0.70;;;10.00;99.90;;;9.46;100.00;95496.31;4986053;28;20447;-45
2022/01/04 07:01:36;;;;;;;2.25;0.70;;;10.00;99.90;;;9.52;100.00;95501.19;4982482;28;20038;-44
2022/01/04 07:04:04;;;;;;;1.85;0.95;;;10.00;99.90;;;9.52;100.00;95508.25;4983538;28;20061;-40
2022/01/04 07:06:30;;;;;;;1.50;0.80;;;10.00;99.90;;;9.50;100.00;95495.19;4982738;28;20033;-41
2022/01/04 07:08:56;;;;;;;1.70;0.70;;;10.00;99.90;;;9.60;100.00;95489.31;4983905;28;20026;-46
2022/01/04 07:11:22;;;;;;;1.60;1.13;;;10.00;99.90;;;9.58;100.00;95484.16;4981201;28;20500;-42
2022/01/04 07:13:48;;;;;;;2.60;0.90;;;10.00;99.90;;;9.56;100.00;95488.69;4984357;28;20030;-38
2022/01/04 07:16:13;;;;;;;1.35;0.70;;;10.00;99.90;;;9.59;100.00;95469.25;4984394;28;20034;-42
2022/01/04 07:18:39;;;;;;;1.20;0.80;;;10.00;99.90;;;9.55;100.00;95472.06;4981615;28;20056;-43
2022/01/04 07:21:05;;;;;;;1.35;0.70;;;10.00;99.90;;;9.59;100.00;95469.25;4985412;28;20026;-42
2022/01/04 07:23:31;;;;;;;0.70;0.60;;;10.00;99.90;;;9.63;100.00;95468.94;4980740;28;20034;-41
2022/01/04 07:25:57;;;;;;;1.65;0.63;;;10.10;99.90;;;9.65;100.00;95461.78;4984848;28;20034;-44
2022/01/04 07:28:23;;;;;;;1.52;0.80;;;10.10;99.90;;;9.66;100.00;95471.38;4984418;28;20408;-40
2022/01/04 07:30:49;;;;;;;2.97;1.10;;;10.10;99.90;;;9.75;100.00;95469.94;4984072;28;20022;-40
2022/01/04 07:33:17;;;;;;;1.85;0.77;;;10.10;99.90;;;9.73;100.00;95456.88;4984296;28;20034;-41
2022/01/04 07:35:44;;;;;;;0.82;0.57;;;10.20;99.90;;;9.73;100.00;95458.66;4984283;28;20406;-45
2022/01/04 07:38:10;;;;;;;1.02;0.50;;;10.20;99.90;;;9.77;100.00;95449.63;4984099;28;20030;-40
2022/01/04 07:40:36;;;;;;;2.22;0.60;;;10.20;99.90;;;9.84;100.00;95448.28;4984012;28;20352;-41
2022/01/04 07:43:02;;;;;;;2.90;0.93;;;10.30;99.90;;;9.84;100.00;95443.00;4979770;28;20034;-42
2022/01/04 07:45:30;;;;;;;2.03;0.75;;;10.30;99.90;;;9.91;100.00;95449.56;4984171;28;20523;-42
2022/01/04 07:47:56;;;;;;;2.80;0.80;;;10.30;99.90;;;9.94;100.00;95444.09;4978650;28;20296;-45
2022/01/04 07:50:23;;;;;;;1.30;0.75;;;10.40;99.90;;;9.99;100.00;95425.34;4984391;28;20089;-41
2022/01/04 07:52:48;;;;;;;1.00;0.68;;;10.40;99.90;;;10.01;100.00;95423.47;4984982;28;20381;-41
2022/01/04 07:55:14;;;;;;;2.10;0.60;;;10.40;99.90;;;10.03;100.00;95412.81;4979056;28;20033;-43
2022/01/04 07:57:42;;;;;;;1.10;0.50;;;10.50;99.90;;;10.10;100.00;95411.47;4986483;28;20034;-41
2022/01/04 08:00:09;;;;;;;1.92;0.75;;;10.50;99.90;;;10.22;100.00;95407.19;4973213;28;20459;-41
2022/01/04 08:02:35;;;;;;;1.48;0.60;;;10.60;99.90;;;10.22;100.00;95397.50;4981103;28;20369;-43
2022/01/04 08:07:30;;;;;;;2.15;0.57;;;10.70;99.90;;;10.37;100.00;95379.00;4981779;28;20043;-48
2022/01/04 08:09:56;;;;;;;1.42;0.63;;;10.80;99.90;;;10.37;100.00;95393.00;4980352;28;20263;-46
2022/01/04 08:12:22;;;;;;;2.35;0.95;;;10.80;99.90;;;10.39;100.00;95401.66;4982655;28;20018;-47
2022/01/04 08:14:48;;;;;;;2.53;0.68;;;10.80;99.90;;;10.46;100.00;95407.34;4983447;28;20447;-46
2022/01/04 08:17:15;;;;;;;1.58;0.60;;;10.90;99.90;;;10.43;100.00;95407.56;4977083;28;20034;-46
2022/01/04 08:19:40;;;;;;;2.25;0.70;;;10.90;99.90;;;10.41;100.00;95414.72;4979588;28;20570;-46
2022/01/04 08:22:06;;;;;;;3.15;0.80;;;10.90;99.90;;;10.45;100.00;95384.59;4984674;28;20042;-45
2022/01/04 08:24:32;;;;;;;1.33;0.70;;;10.90;99.90;;;10.49;100.00;95391.31;4979444;28;20031;-46
2022/01/04 08:26:58;;;;;;;1.80;0.80;;;10.90;99.90;;;10.51;100.00;95392.06;4979892;28;20038;-47
2022/01/04 08:29:24;;;;;;;1.08;0.63;;;11.00;99.90;;;10.52;100.00;95392.94;4983530;28;20042;-48
2022/01/04 08:31:50;;;;;;;1.40;0.95;;;11.00;99.90;;;10.52;100.00;95396.41;4980196;28;20069;-45
2022/01/04 08:34:16;;;;;;;1.20;0.80;;;11.00;99.90;;;10.62;100.00;95399.22;4983512;28;20042;-47
2022/01/04 08:36:42;;;;;;;3.28;0.80;;;11.00;99.90;;;10.72;100.00;95404.72;4986766;28;20446;-46
2022/01/04 08:39:14;;;;;;;1.27;0.70;;;11.10;99.90;;;10.74;100.00;95389.63;4984772;28;20027;-47
2022/01/04 08:41:50;;;;;;;;;;;11.20;99.90;;;10.83;100.00;95395.09;4977854;28;20034;-45
2022/01/04 08:44:16;;;;;;;2.50;0.95;;;11.20;99.90;;;10.79;100.00;95383.09;4981400;28;19914;-46
2022/01/04 08:46:42;;;;;;;3.08;0.70;;;11.20;99.90;;;10.79;100.00;95367.28;4981431;28;20036;-48
2022/01/04 08:49:08;;;;;;;2.60;0.80;;;11.20;99.90;;;10.82;100.00;95359.16;4981774;28;20413;-44
2022/01/04 08:51:35;;;;;;;0.68;0.55;;;11.20;99.90;;;10.77;100.00;95363.91;4985893;28;20053;-46
2022/01/04 08:54:01;;;;;;;1.58;0.65;;;11.20;99.90;;;10.79;100.00;95356.72;4965938;28;20568;-45
2022/01/04 08:56:27;;;;;;;1.20;0.80;;;11.20;99.90;;;10.82;100.00;95363.56;4980751;28;20125;-47
2022/01/04 08:58:53;;;;;;;1.15;0.70;;;11.20;99.90;;;10.84;100.00;95367.78;4960135;28;20035;-42
2022/01/04 09:01:19;;;;;;;2.50;0.90;;;11.30;99.90;;;10.91;100.00;95364.72;4972555;28;20042;-46
2022/01/04 09:03:45;;;;;;;0.98;0.65;;;11.30;99.90;;;10.94;100.00;95362.69;4972642;28;20126;-48
2022/01/04 09:06:12;;;;;;;1.60;1.23;;;11.40;99.90;;;10.97;100.00;95369.56;4972947;28;20038;-48
2022/01/04 09:08:37;;;;;;;1.23;0.65;;;11.40;99.90;;;11.04;100.00;95370.81;4972054;28;20057;-46
2022/01/04 09:11:04;;;;;;;1.45;0.80;;;11.40;99.90;;;10.96;100.00;95363.44;4975196;28;20043;-47
2022/01/04 09:13:36;;;;;;;1.45;0.60;;;11.50;99.90;;;11.06;100.00;95364.47;4960312;28;20038;-46
2022/01/04 09:18:49;;;;;;;5.07;0.90;;;11.50;99.90;;;11.08;100.00;95375.75;4976307;28;20050;-47
2022/01/04 09:21:25;;;;;;;1.33;0.80;;;11.50;99.90;;;11.04;100.00;95361.09;4979922;28;20053;-46
2022/01/04 09:23:53;;;;;;;2.47;0.77;;;11.50;99.90;;;11.00;100.00;95348.22;4981615;28;20062;-49
2022/01/04 09:26:20;;;;;;;1.45;1.00;;;11.40;99.90;;;11.01;100.00;95360.47;4981704;28;20037;-46
2022/01/04 09:28:46;;;;;;;1.75;0.95;;;11.40;99.90;;;10.92;100.00;95338.25;4984768;28;20026;-47
2022/01/04 09:31:14;;;;;;;1.25;0.60;;;11.40;99.90;;;10.97;100.00;95353.75;4976774;28;20030;-46
2022/01/04 09:33:40;;;;;;;1.60;0.68;;;11.40;99.90;;;10.89;100.00;95341.94;4979871;28;20040;-48
2022/01/04 09:36:06;;;;;;;1.45;0.90;;;11.30;99.90;;;10.89;100.00;95343.72;4980382;28;20536;-46
2022/01/04 09:38:32;;;;;;;1.35;0.75;;;11.30;99.90;;;10.82;100.00;95340.69;4979857;28;20026;-47
2022/01/04 09:40:57;;;;;;;1.27;0.80;;;11.30;99.90;;;10.73;100.00;95303.59;4980874;28;20515;-49
2022/01/04 09:43:25;;;;;;;1.65;0.70;;;11.20;99.90;;;10.85;100.00;95331.72;4979491;28;20038;-45
2022/01/04 09:45:52;;;;;;;3.13;0.90;;;11.20;99.90;;;10.81;100.00;95335.53;4984560;28;20049;-47
2022/01/04 09:48:19;;;;;;;1.55;0.80;;;11.20;99.90;;;10.86;100.00;95331.59;4981838;28;20112;-48
2022/01/04 09:50:47;;;;;;;4.10;0.70;;;11.30;99.90;;;10.91;100.00;95333.06;4983945;28;20032;-45
2022/01/04 09:53:19;;;;;;;1.35;0.82;;;11.30;99.90;;;10.91;100.00;95333.94;4988255;28;20141;-48
2022/01/04 09:55:49;;;;;;;1.33;0.70;;;11.30;99.90;;;10.98;100.00;95332.53;4983888;28;20574;-48
2022/01/04 09:58:18;;;;;;;1.88;1.02;;;11.30;99.90;;;10.94;100.00;95331.06;4987603;28;20084;-48
2022/01/04 10:00:44;;;;;;;3.15;1.10;;;11.30;99.90;;;11.00;100.00;95340.31;4982673;28;20038;-44
2022/01/04 10:03:15;;;;;;;5.65;1.05;;;11.30;99.90;;;10.93;100.00;95331.16;4980470;28;20098;-47
2022/01/04 10:05:42;;;;;;;1.17;0.75;;;11.30;99.90;;;10.94;100.00;95340.78;4982383;28;20461;-48
2022/01/04 10:08:11;;;;;;;2.72;0.82;;;11.40;99.90;;;11.02;100.00;95330.53;4985899;28;20496;-46
2022/01/04 10:10:38;;;;;;;2.28;1.08;;;11.40;99.90;;;11.12;100.00;95320.97;4980135;28;20038;-48
2022/01/04 10:13:14;;;;;;;2.05;0.93;;;11.50;99.90;;;11.14;100.00;95311.16;4977084;28;20058;-46
2022/01/04 10:15:48;;;;;;;1.27;0.80;;;11.50;99.90;;;11.17;100.00;95310.94;4983577;28;20145;-46
2022/01/04 10:18:14;;;;;;;2.50;1.00;;;11.60;99.90;;;11.21;100.00;95319.47;4983865;28;20034;-46
2022/01/04 10:20:48;;;;;;;1.58;0.73;;;11.60;99.90;;;11.22;100.00;95324.63;4982378;28;20060;-46
2022/01/04 10:23:23;;;;;;;1.17;0.90;;;11.60;99.90;;;11.21;100.00;95299.19;4981233;28;20034;-47
2022/01/04 10:25:51;;;;;;;1.23;0.70;;;11.60;99.90;;;11.19;100.00;95295.00;4982928;28;20037;-46
2022/01/04 10:28:35;;;;;;;2.85;1.00;;;11.60;99.90;;;11.26;100.00;95301.50;4982160;28;20053;-45
2022/01/04 10:31:14;;;;;;;1.40;0.70;;;11.70;99.90;;;11.36;100.00;95301.66;4981962;28;20448;-47